LHBP/BUD METAR and TAF weather

Enter ICAO airport designator
Station Type Date Time Source
LHBP METAR 2022/01/29 00:30 UTC NOAA

LHBP 290030Z 32013KT CAVOK 02/M06 Q1025 NOSIG


Station Type Date Time Source
LHBP Decoded METAR 2022/01/29 00:30 UTC NOAA

Budapest / Ferihegy, Hungary (LHBP) 47-26N 019-16E 185M
Jan 28, 2022 - 07:30 PM EST / 2022.01.29 0030 UTC
Wind: from the NW (320 degrees) at 15 MPH (13 KT):0
Visibility: greater than 7 mile(s):0
Temperature: 35 F (2 C)
Windchill: 24 F (-4 C):1
Dew Point: 21 F (-6 C)
Relative Humidity: 55%
Pressure (altimeter): 30.27 in. Hg (1025 hPa)
ob: LHBP 290030Z 32013KT CAVOK 02/M06 Q1025 NOSIG
cycle: 0

Station Type Date Time Source
LHBP TAF 2022/01/28 24:00 UTC NOAA

TAF LHBP 282315Z 2824/2924 31016G26KT CAVOK
BECMG 2900/2903 32009KT
BECMG 2907/2910 26009KT
BECMG 2914/2916 6000 -RA -RASN BKN030 OVC70
TEMPO 2916/2924 23014KT 3000 RASN BKN008 OVC030

Example: see airport list